createdAt,value
2023-05-19T00:00:37.137Z,102508.38
2023-05-19T00:03:05.871Z,102502.13
2023-05-19T00:05:35.625Z,102508.44
2023-05-19T00:08:05.546Z,102504.88
2023-05-19T00:10:34.331Z,102503.22
2023-05-19T00:13:02.934Z,102503.25
2023-05-19T00:15:31.613Z,102505.97
2023-05-19T00:18:01.013Z,102505.09
2023-05-19T00:20:29.235Z,102506.91
2023-05-19T00:22:57.332Z,102492.66
2023-05-19T00:25:25.856Z,102496.16
2023-05-19T00:27:53.916Z,102497.94
2023-05-19T00:30:22.952Z,102496.13
2023-05-19T00:32:51.006Z,102495.25
2023-05-19T00:35:21.667Z,102490.81
2023-05-19T00:37:49.827Z,102492.56
2023-05-19T00:40:18.150Z,102492.66
2023-05-19T00:42:46.251Z,102490.88
2023-05-19T00:45:14.298Z,102489.06
2023-05-19T00:47:42.432Z,102482.03
2023-05-19T00:50:11.426Z,102471.41
2023-05-19T00:52:40.824Z,102473.28
2023-05-19T00:55:09.826Z,102477.84
2023-05-19T00:57:38.716Z,102477.69
2023-05-19T01:00:08.319Z,102482.00
2023-05-19T01:02:38.178Z,102477.56
2023-05-19T01:05:07.417Z,102484.63
2023-05-19T01:07:36.831Z,102476.59
2023-05-19T01:10:07.196Z,102481.88
2023-05-19T01:12:36.044Z,102482.75
2023-05-19T01:15:05.461Z,102484.56
2023-05-19T01:17:47.025Z,102473.00
2023-05-19T01:20:21.928Z,102478.34
2023-05-19T01:23:14.999Z,102477.47
2023-05-19T01:26:14.156Z,102486.31
2023-05-19T01:29:08.625Z,102484.28
2023-05-19T01:31:40.157Z,102492.31
2023-05-19T01:34:09.587Z,102484.38
2023-05-19T01:36:39.619Z,102484.38
2023-05-19T01:39:08.038Z,102485.34
2023-05-19T01:41:36.535Z,102481.84
2023-05-19T01:44:04.810Z,102485.47
2023-05-19T01:46:33.100Z,102484.56
2023-05-19T01:49:03.226Z,102485.47
2023-05-19T01:51:31.496Z,102486.31
2023-05-19T01:53:59.683Z,102488.09
2023-05-19T01:56:39.357Z,102493.34
2023-05-19T01:59:17.989Z,102499.53
2023-05-19T02:01:53.375Z,102495.00
2023-05-19T02:04:32.428Z,102499.47
2023-05-19T02:07:04.952Z,102501.16
2023-05-19T02:09:40.761Z,102501.13
2023-05-19T02:12:15.435Z,102500.16
2023-05-19T02:14:50.717Z,102495.75
2023-05-19T02:17:20.923Z,102496.63
2023-05-19T02:19:50.397Z,102497.53
2023-05-19T02:22:18.409Z,102497.47
2023-05-19T02:24:47.735Z,102491.31
2023-05-19T02:27:15.740Z,102486.81
2023-05-19T02:29:43.776Z,102478.72
2023-05-19T02:32:12.053Z,102478.78
2023-05-19T02:34:40.136Z,102484.94
2023-05-19T02:37:09.568Z,102482.31
2023-05-19T02:39:37.574Z,102474.16
2023-05-19T02:42:06.243Z,102484.88
2023-05-19T02:44:34.263Z,102483.13
2023-05-19T02:47:02.337Z,102478.66
2023-05-19T02:49:31.001Z,102481.44
2023-05-19T02:51:59.013Z,102480.47
2023-05-19T02:54:28.411Z,102485.00
2023-05-19T02:56:56.411Z,102484.16
2023-05-19T02:59:25.601Z,102481.50
2023-05-19T03:01:57.374Z,102477.06
2023-05-19T03:04:25.464Z,102475.19
2023-05-19T03:06:54.124Z,102473.53
2023-05-19T03:09:22.285Z,102478.88
2023-05-19T03:11:51.681Z,102470.09
2023-05-19T03:14:23.879Z,102479.81
2023-05-19T03:16:52.450Z,102476.28
2023-05-19T03:19:20.867Z,102470.94
2023-05-19T03:21:49.668Z,102467.47
2023-05-19T03:24:18.075Z,102468.34
2023-05-19T03:26:46.113Z,102460.47
2023-05-19T03:29:15.460Z,102466.59
2023-05-19T03:31:43.609Z,102462.22
2023-05-19T03:34:11.593Z,102457.81
2023-05-19T03:36:39.933Z,102463.16
2023-05-19T03:39:08.207Z,102467.63
2023-05-19T03:41:36.238Z,102468.63
2023-05-19T03:44:04.326Z,102468.63
2023-05-19T03:46:33.704Z,102477.53
2023-05-19T03:49:01.714Z,102471.13
2023-05-19T03:51:30.098Z,102475.47
2023-05-19T03:53:58.244Z,102478.25
2023-05-19T03:56:27.653Z,102477.41
2023-05-19T03:58:55.949Z,102478.25
2023-05-19T04:01:23.977Z,102478.28
2023-05-19T04:03:53.397Z,102485.28
2023-05-19T04:06:22.076Z,102486.28
2023-05-19T04:08:50.253Z,102487.19
2023-05-19T04:11:20.043Z,102485.47
2023-05-19T04:13:48.329Z,102489.13
2023-05-19T04:16:16.446Z,102494.50
2023-05-19T04:18:46.409Z,102493.66
2023-05-19T04:21:16.016Z,102486.59
2023-05-19T04:23:44.062Z,102492.69
2023-05-19T04:26:12.194Z,102493.47
2023-05-19T04:28:42.323Z,102497.97
2023-05-19T04:31:10.996Z,102487.34
2023-05-19T04:33:39.284Z,102489.13
2023-05-19T04:36:11.487Z,102487.44
2023-05-19T04:38:41.200Z,102483.09
2023-05-19T04:41:10.839Z,102487.56
2023-05-19T04:43:41.550Z,102483.22
2023-05-19T04:46:12.307Z,102489.44
2023-05-19T04:48:41.646Z,102489.50
2023-05-19T04:51:09.732Z,102483.28
2023-05-19T04:53:40.156Z,102487.84
2023-05-19T04:56:10.586Z,102484.25
2023-05-19T04:58:40.582Z,102483.41
2023-05-19T05:01:10.628Z,102487.94
2023-05-19T05:03:38.814Z,102486.16
2023-05-19T05:06:07.055Z,102494.16
2023-05-19T05:08:35.198Z,102494.22
2023-05-19T05:11:04.018Z,102484.50
2023-05-19T05:13:34.164Z,102486.34
2023-05-19T05:16:04.714Z,102483.69
2023-05-19T05:18:33.528Z,102486.34
2023-05-19T05:21:02.192Z,102483.78
2023-05-19T05:23:30.795Z,102487.41
2023-05-19T05:25:59.509Z,102495.41
2023-05-19T05:28:27.520Z,102487.41
2023-05-19T05:30:57.880Z,102487.38
2023-05-19T05:33:27.331Z,102492.75
2023-05-19T05:35:55.552Z,102484.84
2023-05-19T05:38:23.604Z,102488.38
2023-05-19T05:40:51.622Z,102483.06
2023-05-19T05:43:19.633Z,102494.59
2023-05-19T05:45:47.679Z,102492.81
2023-05-19T05:48:17.833Z,102489.34
2023-05-19T05:50:46.724Z,102479.59
2023-05-19T05:53:19.768Z,102491.19
2023-05-19T05:55:48.460Z,102496.53
2023-05-19T05:58:17.064Z,102499.19
2023-05-19T06:00:45.452Z,102484.09
2023-05-19T06:03:14.552Z,102495.66
2023-05-19T06:05:44.222Z,102492.16
2023-05-19T06:08:12.302Z,102499.25
2023-05-19T06:10:41.724Z,102489.50
2023-05-19T06:13:09.772Z,102493.97
2023-05-19T06:15:37.969Z,102494.91
2023-05-19T06:18:06.127Z,102491.34
2023-05-19T06:20:34.297Z,102492.25
2023-05-19T06:23:04.057Z,102453.13
2023-05-19T06:25:32.339Z,102497.53
2023-05-19T06:28:00.622Z,102495.75
2023-05-19T06:30:28.733Z,102491.25
2023-05-19T06:32:57.483Z,102492.19
2023-05-19T06:35:25.683Z,102493.06
2023-05-19T06:37:53.699Z,102486.72
2023-05-19T06:40:23.286Z,102485.81
2023-05-19T06:42:51.339Z,102488.44
2023-05-19T06:45:21.903Z,102488.38
2023-05-19T06:47:49.989Z,102491.91
2023-05-19T06:50:18.145Z,102491.84
2023-05-19T06:52:47.062Z,102495.38
2023-05-19T06:55:15.119Z,102490.91
2023-05-19T06:57:44.800Z,102495.34
2023-05-19T07:00:16.756Z,102498.00
2023-05-19T07:02:45.984Z,102498.91
2023-05-19T07:05:14.112Z,102498.84
2023-05-19T07:07:42.251Z,102498.88
2023-05-19T07:10:11.373Z,102499.75
2023-05-19T07:12:39.435Z,102503.19
2023-05-19T07:15:09.616Z,102502.16
2023-05-19T07:17:37.725Z,102498.56
2023-05-19T07:20:10.018Z,102498.50
2023-05-19T07:22:39.720Z,102500.19
2023-05-19T07:25:08.507Z,102495.59
2023-05-19T07:27:36.994Z,102495.56
2023-05-19T07:30:05.465Z,102489.09
2023-05-19T07:32:34.909Z,102492.53
2023-05-19T07:35:03.035Z,102488.81
2023-05-19T07:37:31.139Z,102486.00
2023-05-19T07:39:59.186Z,102497.41
2023-05-19T07:42:27.222Z,102491.03
2023-05-19T07:44:55.287Z,102489.09
2023-05-19T07:47:23.302Z,102488.78
2023-05-19T07:49:52.637Z,102492.13
2023-05-19T07:52:20.705Z,102490.16
2023-05-19T07:54:48.745Z,102491.06
2023-05-19T07:57:16.757Z,102496.28
2023-05-19T07:59:44.787Z,102492.59
2023-05-19T08:02:12.830Z,102485.09
2023-05-19T08:04:41.160Z,102478.75
2023-05-19T08:07:10.822Z,102478.72
2023-05-19T08:09:38.838Z,102482.91
2023-05-19T08:12:07.312Z,102475.72
2023-05-19T08:14:35.309Z,102477.19
2023-05-19T08:17:03.683Z,102478.78
2023-05-19T08:19:31.939Z,102473.47
2023-05-19T08:22:01.198Z,102475.25
2023-05-19T08:24:32.770Z,102475.25
2023-05-19T08:27:01.137Z,102473.53
2023-05-19T08:29:29.180Z,102466.25
2023-05-19T08:31:58.427Z,102471.44
2023-05-19T08:34:26.471Z,102474.75
2023-05-19T08:36:57.793Z,102474.31
2023-05-19T08:39:27.060Z,102477.84
2023-05-19T08:41:56.856Z,102470.78
2023-05-19T08:44:24.957Z,102461.69
2023-05-19T08:46:56.043Z,102468.31
2023-05-19T08:49:28.332Z,102469.81
2023-05-19T08:52:03.499Z,102460.50
2023-05-19T08:54:38.458Z,102458.56
2023-05-19T08:57:09.977Z,102462.25
2023-05-19T08:59:38.723Z,102459.81
2023-05-19T09:02:07.638Z,102453.50
2023-05-19T09:04:37.021Z,102451.69
2023-05-19T09:07:05.386Z,102455.69
2023-05-19T09:09:33.686Z,102457.63
2023-05-19T09:12:01.759Z,102445.13
2023-05-19T09:14:31.411Z,102440.56
2023-05-19T09:16:59.556Z,102453.50
2023-05-19T09:19:30.268Z,102445.06
2023-05-19T09:22:03.216Z,102457.34
2023-05-19T09:24:31.592Z,102445.69
2023-05-19T09:27:00.481Z,102450.66
2023-05-19T09:29:28.702Z,102439.97
2023-05-19T09:32:01.022Z,102447.03
2023-05-19T09:34:29.241Z,102440.50
2023-05-19T09:36:58.046Z,102442.13
2023-05-19T09:39:26.590Z,102440.91
2023-05-19T09:41:55.461Z,102449.81
2023-05-19T09:44:24.292Z,102448.38
2023-05-19T09:46:53.952Z,102447.41
2023-05-19T09:49:25.296Z,102444.34
2023-05-19T09:51:55.432Z,102444.94
2023-05-19T09:54:24.780Z,102432.72
2023-05-19T09:56:57.643Z,102429.63
2023-05-19T09:59:27.267Z,102431.50
2023-05-19T10:01:57.376Z,102426.97
2023-05-19T10:04:28.374Z,102428.78
2023-05-19T10:07:00.020Z,102428.03
2023-05-19T10:09:29.733Z,102426.72
2023-05-19T10:11:59.208Z,102423.97
2023-05-19T10:14:29.210Z,102419.34
2023-05-19T10:16:59.375Z,102414.75
2023-05-19T10:19:29.891Z,102419.19
2023-05-19T10:21:58.231Z,102407.22
2023-05-19T10:24:26.497Z,102411.19
2023-05-19T10:26:58.955Z,102406.13
2023-05-19T10:29:31.648Z,102405.25
2023-05-19T10:32:05.297Z,102399.16
2023-05-19T10:35:11.387Z,102396.97
2023-05-19T10:37:46.665Z,102398.66
2023-05-19T10:40:23.133Z,102400.81
2023-05-19T10:43:04.098Z,102393.28
2023-05-19T10:45:37.853Z,102395.84
2023-05-19T10:48:06.096Z,102397.47
2023-05-19T10:50:38.700Z,102394.19
2023-05-19T10:53:15.677Z,102393.22
2023-05-19T10:55:46.907Z,102389.38
2023-05-19T10:58:15.104Z,102391.13
2023-05-19T11:00:43.178Z,102384.25
2023-05-19T11:03:15.572Z,102387.41
2023-05-19T11:05:45.725Z,102391.25
2023-05-19T11:08:14.352Z,102390.53
2023-05-19T11:10:46.170Z,102388.16
2023-05-19T11:13:22.635Z,102384.25
2023-05-19T11:15:51.046Z,102380.75
2023-05-19T11:18:20.707Z,102378.75
2023-05-19T11:20:58.007Z,102385.97
2023-05-19T11:23:27.000Z,102365.94
2023-05-19T11:25:55.017Z,102369.56
2023-05-19T11:28:26.186Z,102374.75
2023-05-19T11:30:57.740Z,102366.66
2023-05-19T11:33:27.769Z,102366.13
2023-05-19T11:35:59.058Z,102357.94
2023-05-19T11:38:28.109Z,102351.13
2023-05-19T11:40:57.365Z,102363.81
2023-05-19T11:43:25.881Z,102359.03
2023-05-19T11:45:55.917Z,102352.75
2023-05-19T11:48:25.626Z,102345.94
2023-05-19T11:50:53.971Z,102344.41
2023-05-19T11:53:24.363Z,102353.25
2023-05-19T11:55:52.743Z,102355.25
2023-05-19T11:58:27.069Z,102354.66
2023-05-19T12:00:55.283Z,102345.19
2023-05-19T12:03:28.802Z,102358.03
2023-05-19T12:05:57.895Z,102343.88
2023-05-19T12:08:28.252Z,102360.03
2023-05-19T12:10:56.863Z,102356.66
2023-05-19T12:13:24.979Z,102348.94
2023-05-19T12:15:53.537Z,102347.34
2023-05-19T12:18:21.794Z,102347.41
2023-05-19T12:20:50.104Z,102334.44
2023-05-19T12:23:18.170Z,102338.00
2023-05-19T12:25:47.762Z,102336.72
2023-05-19T12:28:17.516Z,102331.03
2023-05-19T12:30:49.000Z,102318.06
2023-05-19T12:33:17.087Z,102330.41
2023-05-19T12:35:46.183Z,102327.75
2023-05-19T12:38:15.998Z,102322.25
2023-05-19T12:40:47.313Z,102318.00
2023-05-19T12:43:22.220Z,102314.72
2023-05-19T12:45:50.414Z,102309.50
2023-05-19T12:48:22.479Z,102303.63
2023-05-19T12:50:52.860Z,102315.25
2023-05-19T12:53:21.056Z,102304.13
2023-05-19T12:55:53.979Z,102295.53
2023-05-19T12:58:23.165Z,102303.75
2023-05-19T13:00:51.976Z,102304.16
2023-05-19T13:03:21.980Z,102283.78
2023-05-19T13:05:51.914Z,102288.69
2023-05-19T13:08:21.598Z,102286.44
2023-05-19T13:10:51.030Z,102279.88
2023-05-19T13:13:19.353Z,102278.06
2023-05-19T13:15:49.413Z,102280.09
2023-05-19T13:18:18.308Z,102280.91
2023-05-19T13:20:50.109Z,102286.94
2023-05-19T13:23:18.735Z,102287.28
2023-05-19T13:25:47.070Z,102290.97
2023-05-19T13:28:16.488Z,102286.59
2023-05-19T13:30:45.622Z,102282.81
2023-05-19T13:33:13.861Z,102284.50
2023-05-19T13:35:42.176Z,102285.38
2023-05-19T13:38:11.271Z,102286.88
2023-05-19T13:40:39.990Z,102282.53
2023-05-19T13:43:09.068Z,102281.28
2023-05-19T13:45:38.772Z,102278.13
2023-05-19T13:48:08.311Z,102276.44
2023-05-19T13:50:36.568Z,102274.75
2023-05-19T13:53:04.753Z,102276.22
2023-05-19T13:55:33.096Z,102268.94
2023-05-19T13:58:01.214Z,102261.56
2023-05-19T14:00:29.519Z,102268.38
2023-05-19T14:03:00.353Z,102274.28
2023-05-19T14:05:29.080Z,102265.75
2023-05-19T14:07:57.965Z,102267.50
2023-05-19T14:10:26.262Z,102272.69
2023-05-19T14:13:25.289Z,102270.69
2023-05-19T14:15:42.497Z,102263.47
2023-05-19T14:18:12.207Z,102263.66
2023-05-19T14:20:40.436Z,102249.84
2023-05-19T14:23:08.519Z,102262.00
2023-05-19T14:25:36.575Z,102257.47
2023-05-19T14:28:04.766Z,102253.94
2023-05-19T14:30:33.021Z,102263.22
2023-05-19T14:33:01.248Z,102259.94
2023-05-19T14:35:30.668Z,102263.75
2023-05-19T14:37:58.697Z,102263.78
2023-05-19T14:40:26.782Z,102261.31
2023-05-19T14:42:54.891Z,102247.69
2023-05-19T14:45:22.991Z,102261.31
2023-05-19T14:47:51.103Z,102257.38
2023-05-19T14:50:19.288Z,102244.28
2023-05-19T14:52:48.668Z,102256.16
2023-05-19T14:55:16.696Z,102247.91
2023-05-19T14:57:44.702Z,102239.91
2023-05-19T15:00:13.795Z,102248.03
2023-05-19T15:02:42.011Z,102258.31
2023-05-19T15:05:10.209Z,102255.22
2023-05-19T15:07:38.749Z,102257.38
2023-05-19T15:10:09.451Z,102250.72
2023-05-19T15:12:37.525Z,102252.59
2023-05-19T15:15:06.496Z,102245.63
2023-05-19T15:17:34.597Z,102246.44
2023-05-19T15:20:02.703Z,102261.25
2023-05-19T15:22:30.811Z,102242.34
2023-05-19T15:24:59.376Z,102244.19
2023-05-19T15:27:28.902Z,102233.59
2023-05-19T15:29:56.904Z,102246.38
2023-05-19T15:32:25.024Z,102235.13
2023-05-19T15:34:53.067Z,102250.56
2023-05-19T15:37:21.100Z,102245.09
2023-05-19T15:39:49.541Z,102250.56
2023-05-19T15:42:17.572Z,102230.78
2023-05-19T15:44:47.064Z,102238.88
2023-05-19T15:47:15.116Z,102248.47
2023-05-19T15:49:43.194Z,102244.19
2023-05-19T15:52:11.167Z,102251.53
2023-05-19T15:54:39.207Z,102261.19
2023-05-19T15:57:07.325Z,102260.13
2023-05-19T15:59:35.370Z,102260.72
2023-05-19T16:02:04.911Z,102256.84
2023-05-19T16:04:33.407Z,102258.28
2023-05-19T16:07:01.444Z,102252.44
2023-05-19T16:09:29.502Z,102247.56
2023-05-19T16:11:57.592Z,102242.84
2023-05-19T16:14:29.404Z,102246.25
2023-05-19T16:16:58.050Z,102254.59
2023-05-19T16:19:30.530Z,102241.50
2023-05-19T16:21:58.642Z,102242.06
2023-05-19T16:24:26.688Z,102242.16
2023-05-19T16:26:54.936Z,102241.97
2023-05-19T16:29:23.027Z,102244.41
2023-05-19T16:31:51.196Z,102244.25
2023-05-19T16:34:19.295Z,102241.00
2023-05-19T16:36:48.862Z,102250.41
2023-05-19T16:39:16.916Z,102251.63
2023-05-19T16:41:44.949Z,102243.91
2023-05-19T16:44:14.529Z,102254.66
2023-05-19T16:46:42.643Z,102254.09
2023-05-19T16:49:11.074Z,102241.13
2023-05-19T16:51:39.153Z,102245.31
2023-05-19T16:54:08.832Z,102252.50
2023-05-19T16:56:36.960Z,102254.56
2023-05-19T16:59:34.004Z,102244.47
2023-05-19T17:02:02.062Z,102249.53
2023-05-19T17:04:31.001Z,102234.16
2023-05-19T17:06:59.333Z,102241.00
2023-05-19T17:09:28.733Z,102240.06
2023-05-19T17:11:57.124Z,102239.94
2023-05-19T17:14:25.234Z,102246.84
2023-05-19T17:16:53.445Z,102250.16
2023-05-19T17:19:21.554Z,102250.50
2023-05-19T17:21:49.696Z,102257.22
2023-05-19T17:24:17.849Z,102234.38
2023-05-19T17:26:48.088Z,102248.44
2023-05-19T17:29:16.113Z,102250.13
2023-05-19T17:31:44.365Z,102250.63
2023-05-19T17:34:12.407Z,102243.59
2023-05-19T17:36:40.632Z,102237.09
2023-05-19T17:39:08.785Z,102239.38
2023-05-19T17:41:36.855Z,102242.41
2023-05-19T17:44:06.888Z,102244.09
2023-05-19T17:46:36.106Z,102252.84
2023-05-19T17:49:04.240Z,102247.44
2023-05-19T17:51:33.207Z,102247.44
2023-05-19T17:54:01.868Z,102244.97
2023-05-19T17:56:34.687Z,102250.94
2023-05-19T17:59:03.236Z,102247.41
2023-05-19T18:01:33.531Z,102252.47
2023-05-19T18:04:02.417Z,102254.66
2023-05-19T18:06:31.969Z,102253.78
2023-05-19T18:09:01.753Z,102266.56
2023-05-19T18:11:30.211Z,102262.22
2023-05-19T18:13:58.742Z,102264.84
2023-05-19T18:16:27.425Z,102271.22
2023-05-19T18:18:56.903Z,102264.47
2023-05-19T18:21:25.289Z,102258.66
2023-05-19T18:23:53.436Z,102256.44
2023-05-19T18:26:22.479Z,102265.44
2023-05-19T18:28:50.532Z,102261.94
2023-05-19T18:31:19.833Z,102270.34
2023-05-19T18:33:48.327Z,102260.88
2023-05-19T18:36:17.775Z,102265.00
2023-05-19T18:38:47.321Z,102270.28
2023-05-19T18:41:15.612Z,102269.84
2023-05-19T18:43:43.661Z,102268.19
2023-05-19T18:46:13.354Z,102264.06
2023-05-19T18:48:41.799Z,102280.63
2023-05-19T18:51:10.134Z,102273.47
2023-05-19T18:53:39.530Z,102278.97
2023-05-19T18:56:08.507Z,102274.53
2023-05-19T18:58:36.616Z,102278.44
2023-05-19T19:01:05.030Z,102283.75
2023-05-19T19:03:33.254Z,102282.94
2023-05-19T19:06:01.686Z,102277.94
2023-05-19T19:08:29.714Z,102283.50
2023-05-19T19:11:01.164Z,102281.94
2023-05-19T19:13:29.463Z,102293.84
2023-05-19T19:15:57.520Z,102290.47
2023-05-19T19:18:26.572Z,102288.50
2023-05-19T19:20:54.891Z,102285.56
2023-05-19T19:23:22.924Z,102288.34
2023-05-19T19:25:51.095Z,102293.03
2023-05-19T19:28:20.756Z,102293.13
2023-05-19T19:30:48.858Z,102297.81
2023-05-19T19:33:16.981Z,102305.22
2023-05-19T19:35:46.888Z,102302.66
2023-05-19T19:38:15.088Z,102308.72
2023-05-19T19:40:43.204Z,102305.13
2023-05-19T19:43:11.264Z,102308.75
2023-05-19T19:45:41.607Z,102299.38
2023-05-19T19:48:09.794Z,102319.75
2023-05-19T19:50:37.875Z,102318.53
2023-05-19T19:53:05.869Z,102324.69
2023-05-19T19:55:34.052Z,102321.69
2023-05-19T19:58:02.209Z,102331.34
2023-05-19T20:00:30.255Z,102325.31
2023-05-19T20:03:04.429Z,102324.75
2023-05-19T20:05:33.594Z,102325.50
2023-05-19T20:08:01.752Z,102331.13
2023-05-19T20:10:29.907Z,102330.25
2023-05-19T20:12:58.903Z,102331.28
2023-05-19T20:15:27.148Z,102339.59
2023-05-19T20:17:55.216Z,102335.09
2023-05-19T20:20:24.901Z,102345.41
2023-05-19T20:22:53.064Z,102347.09
2023-05-19T20:25:21.254Z,102352.78
2023-05-19T20:27:49.317Z,102353.75
2023-05-19T20:30:17.561Z,102348.53
2023-05-19T20:32:46.620Z,102354.88
2023-05-19T20:35:14.866Z,102350.81
2023-05-19T20:37:44.325Z,102354.59
2023-05-19T20:40:12.791Z,102356.50
2023-05-19T20:42:40.921Z,102345.06
2023-05-19T20:45:09.775Z,102349.50
2023-05-19T20:47:37.948Z,102357.88
2023-05-19T20:50:07.038Z,102359.53
2023-05-19T20:52:35.054Z,102349.66
2023-05-19T20:55:04.777Z,102355.34
2023-05-19T20:57:32.881Z,102365.19
2023-05-19T21:00:01.061Z,102364.19
2023-05-19T21:02:29.197Z,102371.47
2023-05-19T21:04:57.314Z,102369.84
2023-05-19T21:07:26.037Z,102371.75
2023-05-19T21:09:54.374Z,102370.09
2023-05-19T21:12:25.224Z,102375.47
2023-05-19T21:14:53.336Z,102377.41
2023-05-19T21:17:21.405Z,102371.31
2023-05-19T21:19:50.728Z,102367.75
2023-05-19T21:22:19.036Z,102365.19
2023-05-19T21:24:47.074Z,102368.81
2023-05-19T21:27:15.106Z,102366.25
2023-05-19T21:29:44.535Z,102362.88
2023-05-19T21:32:12.608Z,102371.63
2023-05-19T21:34:40.653Z,102371.63
2023-05-19T21:37:08.719Z,102375.13
2023-05-19T21:39:36.736Z,102381.44
2023-05-19T21:42:05.223Z,102369.94
2023-05-19T21:44:33.220Z,102378.88
2023-05-19T21:47:02.613Z,102374.41
2023-05-19T21:49:31.228Z,102369.94
2023-05-19T21:51:59.452Z,102374.41
2023-05-19T21:54:27.530Z,102377.97
2023-05-19T21:56:55.603Z,102376.25
2023-05-19T21:59:24.678Z,102377.22
2023-05-19T22:01:52.926Z,102389.66
2023-05-19T22:04:23.650Z,102383.34
2023-05-19T22:06:51.652Z,102386.97
2023-05-19T22:09:19.673Z,102383.53
2023-05-19T22:11:47.721Z,102389.72
2023-05-19T22:14:15.842Z,102383.69
2023-05-19T22:16:44.093Z,102385.38
2023-05-19T22:19:12.763Z,102377.44
2023-05-19T22:21:42.351Z,102376.63
2023-05-19T22:24:10.418Z,102380.28
2023-05-19T22:26:42.552Z,102378.53
2023-05-19T22:29:15.006Z,102377.56
2023-05-19T22:31:43.094Z,102375.81
2023-05-19T22:34:12.671Z,102374.09
2023-05-19T22:36:44.120Z,102383.91
2023-05-19T22:39:12.656Z,102380.34
2023-05-19T22:41:41.120Z,102379.47
2023-05-19T22:44:10.422Z,102375.84
2023-05-19T22:46:38.527Z,102374.06
2023-05-19T22:49:06.598Z,102383.91
2023-05-19T22:51:34.764Z,102373.22
2023-05-19T22:54:04.210Z,102383.88
2023-05-19T22:56:32.300Z,102391.94
2023-05-19T22:59:00.613Z,102399.06
2023-05-19T23:01:28.716Z,102390.22
2023-05-19T23:03:56.773Z,102383.97
2023-05-19T23:06:25.005Z,102387.59
2023-05-19T23:09:00.442Z,102396.56
2023-05-19T23:11:29.868Z,102392.19
2023-05-19T23:13:57.905Z,102401.91
2023-05-19T23:16:26.106Z,102403.72
2023-05-19T23:18:54.252Z,102402.94
2023-05-19T23:21:22.343Z,102401.16
2023-05-19T23:23:50.888Z,102409.16
2023-05-19T23:26:18.924Z,102401.22
2023-05-19T23:28:48.296Z,102405.72
2023-05-19T23:31:16.387Z,102403.97
2023-05-19T23:33:44.551Z,102397.81
2023-05-19T23:36:12.621Z,102401.34
2023-05-19T23:38:40.692Z,102400.47
2023-05-19T23:41:08.710Z,102397.81
2023-05-19T23:43:37.722Z,102394.25
2023-05-19T23:46:07.266Z,102388.00
2023-05-19T23:48:36.625Z,102393.38
2023-05-19T23:51:04.789Z,102395.16
2023-05-19T23:53:32.856Z,102395.22
2023-05-19T23:56:01.158Z,102389.91
2023-05-19T23:58:29.192Z,102397.00
